13°C Temp
1°C Dewpoint
44% Humidity
Temperature
24 KM/H
15 MPH
13 KTS
70°
East North
East

Wind Speed
Clear
Conditions
Pressure 1023.92 (hPa) - 30.24 (in)
Visibility 6.2 (mi) - 10.0 (km)

Current Conditions
LECO
Location 50(km)
Metar :LECO 061530Z 07013KT 050V110 CAVOK 13/01 Q1024 NOSIG
Mon 6th February 16:30 pm

Airport
  Metar Aviation API Data Provided by https://www.checkwx.com/ PHP scripts by weather34.com ©2023